M/V Shearwater — WDF5838 — position and weather

sailwx.info

Track history (hours):
 
Tides and Currents Weather Stations Pressure Air Temp Water Temp Dewpoint Dewpoint Depression Visibility Wind Speed Wind Dir Waves Ship Positions

M/V Shearwater

Owner: ALPINE OCEAN SEISMIC SURVEY, INC., NORWOOD, NJ. More information available from US FCC via Universal Licensing System and Coast Guard Vessel Documentation Center.

Last reported at 2017-Oct-17 17:02 UTC. Time now 2017-Oct-18 00:04 UTC.
Position N 38°45' W 075°02'.

Length 34 m; draft 2.8 m.

Type: . MMSI: 368528000.

Date/timePositionNaut miles runAvg speedWind from/ knotsBaromVisibWave heightAir tempDewpointWater temp
2017-Oct-17 17:02N 38°45' W 075°02'0 7.4
2017-Oct-17 17:00N 38°45' W 075°03'5 0.2
2017-Oct-16 14:08N 38°40' W 075°02'51 2.3
2017-Oct-15 15:55N 39°23' W 074°26'0 0.0
2017-Oct-15 13:55N 39°23' W 074°26'0 0.0
2017-Oct-15 13:22N 39°23' W 074°26'0 0.0
2017-Oct-15 11:22N 39°23' W 074°26'0 0.0
2017-Oct-15 10:11N 39°23' W 074°26'0 0.0
2017-Oct-15 03:16N 39°23' W 074°26'0 0.0
2017-Oct-15 02:58N 39°23' W 074°26'0 0.0
2017-Oct-15 01:55N 39°23' W 074°26'0 0.0
2017-Oct-15 01:22N 39°23' W 074°26'0 0.0
2017-Oct-15 00:55N 39°23' W 074°26'0 0.0
2017-Oct-15 00:28N 39°23' W 074°26'0 0.0
2017-Oct-14 23:37N 39°23' W 074°26'0 0.0
2017-Oct-14 21:22N 39°23' W 074°26'0 0.0
2017-Oct-14 20:55N 39°23' W 074°26'0 0.0
2017-Oct-14 20:16N 39°23' W 074°26'0 0.0
2017-Oct-14 19:58N 39°23' W 074°26'0 0.0
2017-Oct-14 19:28N 39°23' W 074°26'0 0.0
2017-Oct-14 18:46N 39°23' W 074°26'0 0.0
2017-Oct-13 06:23N 39°23' W 074°26'0 0.0
2017-Oct-12 02:44N 39°23' W 074°26'0 0.0
2017-Oct-12 02:24N 39°23' W 074°26'0 0.0
2017-Oct-12 02:00N 39°23' W 074°26'0 0.0
2017-Oct-12 00:42N 39°23' W 074°26'0 0.0
2017-Oct-12 00:24N 39°23' W 074°26'0 0.0
2017-Oct-11 23:30N 39°23' W 074°26'0 0.0
2017-Oct-11 22:57N 39°23' W 074°26'0 0.0
2017-Oct-11 21:33N 39°23' W 074°26'0 0.0
2017-Oct-11 21:27N 39°23' W 074°26'15 0.7
2017-Oct-11 00:00N 39°33' W 074°11'2 3.2
2017-Oct-10 23:30N 39°34' W 074°10'2 3.4
2017-Oct-10 22:59N 39°36' W 074°08'1 2.7
2017-Oct-10 22:29N 39°37' W 074°08'1 1.6
2017-Oct-10 22:00N 39°37' W 074°09'1 1.6
2017-Oct-10 21:30N 39°38' W 074°08'1 1.3
2017-Oct-10 20:59N 39°38' W 074°07'1 2.4
2017-Oct-10 20:29N 39°37' W 074°08'3 6.1
2017-Oct-10 20:00N 39°34' W 074°10'3 6.2
2017-Oct-10 19:30N 39°32' W 074°12'3 6.1
2017-Oct-10 19:00N 39°29' W 074°14'11 2.1
2017-Oct-10 13:37N 39°23' W 074°26'0 0.0
2017-Oct-10 13:16N 39°23' W 074°26'0 0.0
2017-Oct-10 12:55N 39°23' W 074°26'0 0.0
2017-Oct-10 12:25N 39°23' W 074°26'0 0.0
2017-Oct-10 11:58N 39°23' W 074°26'0 0.0
2017-Oct-10 11:25N 39°23' W 074°26'0 0.0
2017-Oct-10 10:55N 39°23' W 074°26'0 0.0
2017-Oct-10 10:19N 39°23' W 074°26'0 0.0
2017-Oct-10 09:37N 39°23' W 074°26'0 0.0
2017-Oct-10 09:01N 39°23' W 074°26'0 0.0
2017-Oct-10 08:55N 39°23' W 074°26'0 0.0
2017-Oct-10 08:25N 39°23' W 074°26'0 0.0
2017-Oct-10 07:49N 39°23' W 074°26'0 0.0
2017-Oct-10 07:25N 39°23' W 074°26'0 0.0
2017-Oct-10 06:58N 39°23' W 074°26'0 0.0
2017-Oct-10 06:07N 39°23' W 074°26'0 0.0
2017-Oct-10 05:46N 39°23' W 074°26'0 0.0
2017-Oct-10 05:07N 39°23' W 074°26'0 0.0
2017-Oct-09 15:03N 39°23' W 074°26'0 0.0
2017-Oct-09 14:57N 39°23' W 074°26'0 0.0
2017-Oct-09 09:55N 39°23' W 074°26'0 0.0
2017-Oct-09 09:25N 39°23' W 074°26'0 0.0
2017-Oct-09 08:52N 39°23' W 074°26'0 0.0
2017-Oct-09 08:28N 39°23' W 074°26'0 0.0
2017-Oct-09 07:58N 39°23' W 074°26'0 0.0
2017-Oct-09 07:25N 39°23' W 074°26'0 0.0
2017-Oct-09 06:55N 39°23' W 074°26'0 0.0
2017-Oct-09 06:19N 39°23' W 074°26'0 0.0
2017-Oct-09 05:58N 39°23' W 074°26'0 0.0
2017-Oct-09 05:07N 39°23' W 074°26'0 0.0
2017-Oct-09 04:49N 39°23' W 074°26'0 0.0
2017-Oct-09 04:25N 39°23' W 074°26'0 0.0
2017-Oct-09 03:58N 39°23' W 074°26'0 0.0
2017-Oct-09 03:22N 39°23' W 074°26'1 1.4
2017-Oct-09 02:57N 39°23' W 074°25'9 1.8
2017-Oct-08 22:02N 39°28' W 074°15'1 3.4
2017-Oct-08 21:36N 39°29' W 074°14'0 3.6
2017-Oct-08 21:29N 39°29' W 074°14'2 3.6
2017-Oct-08 21:00N 39°31' W 074°13'2 4.4
2017-Oct-08 20:30N 39°33' W 074°11'2 4.2
2017-Oct-08 20:00N 39°34' W 074°10'2 3.9
2017-Oct-08 19:30N 39°36' W 074°09'1 2.7
2017-Oct-08 19:00N 39°37' W 074°08'2 3.1
2017-Oct-08 18:30N 39°39' W 074°08'1 1.4
2017-Oct-08 17:44N 39°39' W 074°09'0 0.0
2017-Oct-08 17:26N 39°39' W 074°09'0 0.0
2017-Oct-08 16:32N 39°39' W 074°09'0 0.0
2017-Oct-08 16:08N 39°39' W 074°09'0 0.0
2017-Oct-08 15:56N 39°39' W 074°09'0 0.0
2017-Oct-08 15:26N 39°39' W 074°09'0 0.0
2017-Oct-08 14:56N 39°39' W 074°09'0 0.0
2017-Oct-08 14:26N 39°39' W 074°09'0 0.0
2017-Oct-08 13:50N 39°39' W 074°09'0 0.0
2017-Oct-08 13:26N 39°39' W 074°09'0 0.0
2017-Oct-08 12:56N 39°39' W 074°09'0 0.0
2017-Oct-08 12:23N 39°39' W 074°09'0 0.0
2017-Oct-08 11:47N 39°39' W 074°09'0 0.0
2017-Oct-08 11:23N 39°39' W 074°09'0 0.0
2017-Oct-08 10:38N 39°39' W 074°09'0 0.0
2017-Oct-08 10:08N 39°39' W 074°09'0 0.0
2017-Oct-08 09:56N 39°39' W 074°09'0 0.0
2017-Oct-08 09:23N 39°39' W 074°09'0 0.0
2017-Oct-08 08:59N 39°39' W 074°09'0 0.0
2017-Oct-08 08:11N 39°39' W 074°09'0 0.0
2017-Oct-08 07:59N 39°39' W 074°09'0 0.0
2017-Oct-08 07:29N 39°39' W 074°09'0 0.0
2017-Oct-08 06:08N 39°39' W 074°09'0 0.0
2017-Oct-08 05:53N 39°39' W 074°09'0 0.0
2017-Oct-08 05:26N 39°39' W 074°09'0 0.0
2017-Oct-08 04:50N 39°39' W 074°09'0 0.0
2017-Oct-08 04:29N 39°39' W 074°09'0 0.0
2017-Oct-08 03:05N 39°39' W 074°09'0 0.0
2017-Oct-08 02:50N 39°39' W 074°09'0 0.0
2017-Oct-08 02:29N 39°39' W 074°09'0 0.0
2017-Oct-08 01:50N 39°39' W 074°09'0 0.0
2017-Oct-08 00:50N 39°39' W 074°09'0 0.0
2017-Oct-08 00:26N 39°39' W 074°09'0 0.0
2017-Oct-07 23:59N 39°39' W 074°09'0 0.0
2017-Oct-07 23:16N 39°39' W 074°09'0 1.9
2017-Oct-07 23:00N 39°39' W 074°09'1 1.8
2017-Oct-07 22:31N 39°38' W 074°08'1 1.3
2017-Oct-07 22:00N 39°39' W 074°07'1 1.2
2017-Oct-07 21:30N 39°39' W 074°07'1 1.5
2017-Oct-07 21:00N 39°39' W 074°06'1 1.4
2017-Oct-07 20:30N 39°39' W 074°05'1 1.4
2017-Oct-07 20:00N 39°39' W 074°04'0 0.9
2017-Oct-07 19:30N 39°39' W 074°04'1 1.7
2017-Oct-07 19:00N 39°39' W 074°03'1 1.2
2017-Oct-07 18:30N 39°40' W 074°04'1 1.3
2017-Oct-07 18:00N 39°39' W 074°04'0 0.1
2017-Oct-07 17:30N 39°39' W 074°04'  
Track history (hours):
 
Tides and Currents Weather Stations Pressure Air Temp Water Temp Dewpoint Dewpoint Depression Visibility Wind Speed Wind Dir Waves Ship Positions

M/V Shearwater

Owner: ALPINE OCEAN SEISMIC SURVEY, INC., NORWOOD, NJ. More information available from US FCC via Universal Licensing System and Coast Guard Vessel Documentation Center.

Last reported at 2017-Oct-17 17:02 UTC. Time now 2017-Oct-18 00:04 UTC.
Position N 38°45' W 075°02'.

Length 34 m; draft 2.8 m.

Type: . MMSI: 368528000.

Date/timePositionNaut miles runAvg speedWind from/ knotsBaromVisibWave heightAir tempDewpointWater temp
2017-Oct-17 17:02N 38°45' W 075°02'0 7.4
2017-Oct-17 17:00N 38°45' W 075°03'5 0.2
2017-Oct-16 14:08N 38°40' W 075°02'51 2.3
2017-Oct-15 15:55N 39°23' W 074°26'0 0.0
2017-Oct-15 13:55N 39°23' W 074°26'0 0.0
2017-Oct-15 13:22N 39°23' W 074°26'0 0.0
2017-Oct-15 11:22N 39°23' W 074°26'0 0.0
2017-Oct-15 10:11N 39°23' W 074°26'0 0.0
2017-Oct-15 03:16N 39°23' W 074°26'0 0.0
2017-Oct-15 02:58N 39°23' W 074°26'0 0.0
2017-Oct-15 01:55N 39°23' W 074°26'0 0.0
2017-Oct-15 01:22N 39°23' W 074°26'0 0.0
2017-Oct-15 00:55N 39°23' W 074°26'0 0.0
2017-Oct-15 00:28N 39°23' W 074°26'0 0.0
2017-Oct-14 23:37N 39°23' W 074°26'0 0.0
2017-Oct-14 21:22N 39°23' W 074°26'0 0.0
2017-Oct-14 20:55N 39°23' W 074°26'0 0.0
2017-Oct-14 20:16N 39°23' W 074°26'0 0.0
2017-Oct-14 19:58N 39°23' W 074°26'0 0.0
2017-Oct-14 19:28N 39°23' W 074°26'0 0.0
2017-Oct-14 18:46N 39°23' W 074°26'0 0.0
2017-Oct-13 06:23N 39°23' W 074°26'0 0.0
2017-Oct-12 02:44N 39°23' W 074°26'0 0.0
2017-Oct-12 02:24N 39°23' W 074°26'0 0.0
2017-Oct-12 02:00N 39°23' W 074°26'0 0.0
2017-Oct-12 00:42N 39°23' W 074°26'0 0.0
2017-Oct-12 00:24N 39°23' W 074°26'0 0.0
2017-Oct-11 23:30N 39°23' W 074°26'0 0.0
2017-Oct-11 22:57N 39°23' W 074°26'0 0.0
2017-Oct-11 21:33N 39°23' W 074°26'0 0.0
2017-Oct-11 21:27N 39°23' W 074°26'15 0.7
2017-Oct-11 00:00N 39°33' W 074°11'2 3.2
2017-Oct-10 23:30N 39°34' W 074°10'2 3.4
2017-Oct-10 22:59N 39°36' W 074°08'1 2.7
2017-Oct-10 22:29N 39°37' W 074°08'1 1.6
2017-Oct-10 22:00N 39°37' W 074°09'1 1.6
2017-Oct-10 21:30N 39°38' W 074°08'1 1.3
2017-Oct-10 20:59N 39°38' W 074°07'1 2.4
2017-Oct-10 20:29N 39°37' W 074°08'3 6.1
2017-Oct-10 20:00N 39°34' W 074°10'3 6.2
2017-Oct-10 19:30N 39°32' W 074°12'3 6.1
2017-Oct-10 19:00N 39°29' W 074°14'11 2.1
2017-Oct-10 13:37N 39°23' W 074°26'0 0.0
2017-Oct-10 13:16N 39°23' W 074°26'0 0.0
2017-Oct-10 12:55N 39°23' W 074°26'0 0.0
2017-Oct-10 12:25N 39°23' W 074°26'0 0.0
2017-Oct-10 11:58N 39°23' W 074°26'0 0.0
2017-Oct-10 11:25N 39°23' W 074°26'0 0.0
2017-Oct-10 10:55N 39°23' W 074°26'0 0.0
2017-Oct-10 10:19N 39°23' W 074°26'0 0.0
2017-Oct-10 09:37N 39°23' W 074°26'0 0.0
2017-Oct-10 09:01N 39°23' W 074°26'0 0.0
2017-Oct-10 08:55N 39°23' W 074°26'0 0.0
2017-Oct-10 08:25N 39°23' W 074°26'0 0.0
2017-Oct-10 07:49N 39°23' W 074°26'0 0.0
2017-Oct-10 07:25N 39°23' W 074°26'0 0.0
2017-Oct-10 06:58N 39°23' W 074°26'0 0.0
2017-Oct-10 06:07N 39°23' W 074°26'0 0.0
2017-Oct-10 05:46N 39°23' W 074°26'0 0.0
2017-Oct-10 05:07N 39°23' W 074°26'0 0.0
2017-Oct-09 15:03N 39°23' W 074°26'0 0.0
2017-Oct-09 14:57N 39°23' W 074°26'0 0.0
2017-Oct-09 09:55N 39°23' W 074°26'0 0.0
2017-Oct-09 09:25N 39°23' W 074°26'0 0.0
2017-Oct-09 08:52N 39°23' W 074°26'0 0.0
2017-Oct-09 08:28N 39°23' W 074°26'0 0.0
2017-Oct-09 07:58N 39°23' W 074°26'0 0.0
2017-Oct-09 07:25N 39°23' W 074°26'0 0.0
2017-Oct-09 06:55N 39°23' W 074°26'0 0.0
2017-Oct-09 06:19N 39°23' W 074°26'0 0.0
2017-Oct-09 05:58N 39°23' W 074°26'0 0.0
2017-Oct-09 05:07N 39°23' W 074°26'0 0.0
2017-Oct-09 04:49N 39°23' W 074°26'0 0.0
2017-Oct-09 04:25N 39°23' W 074°26'0 0.0
2017-Oct-09 03:58N 39°23' W 074°26'0 0.0
2017-Oct-09 03:22N 39°23' W 074°26'1 1.4
2017-Oct-09 02:57N 39°23' W 074°25'9 1.8
2017-Oct-08 22:02N 39°28' W 074°15'1 3.4
2017-Oct-08 21:36N 39°29' W 074°14'0 3.6
2017-Oct-08 21:29N 39°29' W 074°14'2 3.6
2017-Oct-08 21:00N 39°31' W 074°13'2 4.4
2017-Oct-08 20:30N 39°33' W 074°11'2 4.2
2017-Oct-08 20:00N 39°34' W 074°10'2 3.9
2017-Oct-08 19:30N 39°36' W 074°09'1 2.7
2017-Oct-08 19:00N 39°37' W 074°08'2 3.1
2017-Oct-08 18:30N 39°39' W 074°08'1 1.4
2017-Oct-08 17:44N 39°39' W 074°09'0 0.0
2017-Oct-08 17:26N 39°39' W 074°09'0 0.0
2017-Oct-08 16:32N 39°39' W 074°09'0 0.0
2017-Oct-08 16:08N 39°39' W 074°09'0 0.0
2017-Oct-08 15:56N 39°39' W 074°09'0 0.0
2017-Oct-08 15:26N 39°39' W 074°09'0 0.0
2017-Oct-08 14:56N 39°39' W 074°09'0 0.0
2017-Oct-08 14:26N 39°39' W 074°09'0 0.0
2017-Oct-08 13:50N 39°39' W 074°09'0 0.0
2017-Oct-08 13:26N 39°39' W 074°09'0 0.0
2017-Oct-08 12:56N 39°39' W 074°09'0 0.0
2017-Oct-08 12:23N 39°39' W 074°09'0 0.0
2017-Oct-08 11:47N 39°39' W 074°09'0 0.0
2017-Oct-08 11:23N 39°39' W 074°09'0 0.0
2017-Oct-08 10:38N 39°39' W 074°09'0 0.0
2017-Oct-08 10:08N 39°39' W 074°09'0 0.0
2017-Oct-08 09:56N 39°39' W 074°09'0 0.0
2017-Oct-08 09:23N 39°39' W 074°09'0 0.0
2017-Oct-08 08:59N 39°39' W 074°09'0 0.0
2017-Oct-08 08:11N 39°39' W 074°09'0 0.0
2017-Oct-08 07:59N 39°39' W 074°09'0 0.0
2017-Oct-08 07:29N 39°39' W 074°09'0 0.0
2017-Oct-08 06:08N 39°39' W 074°09'0 0.0
2017-Oct-08 05:53N 39°39' W 074°09'0 0.0
2017-Oct-08 05:26N 39°39' W 074°09'0 0.0
2017-Oct-08 04:50N 39°39' W 074°09'0 0.0
2017-Oct-08 04:29N 39°39' W 074°09'0 0.0
2017-Oct-08 03:05N 39°39' W 074°09'0 0.0
2017-Oct-08 02:50N 39°39' W 074°09'0 0.0
2017-Oct-08 02:29N 39°39' W 074°09'0 0.0
2017-Oct-08 01:50N 39°39' W 074°09'0 0.0
2017-Oct-08 00:50N 39°39' W 074°09'0 0.0
2017-Oct-08 00:26N 39°39' W 074°09'0 0.0
2017-Oct-07 23:59N 39°39' W 074°09'0 0.0
2017-Oct-07 23:16N 39°39' W 074°09'0 1.9
2017-Oct-07 23:00N 39°39' W 074°09'1 1.8
2017-Oct-07 22:31N 39°38' W 074°08'1 1.3
2017-Oct-07 22:00N 39°39' W 074°07'1 1.2
2017-Oct-07 21:30N 39°39' W 074°07'1 1.5
2017-Oct-07 21:00N 39°39' W 074°06'1 1.4
2017-Oct-07 20:30N 39°39' W 074°05'1 1.4
2017-Oct-07 20:00N 39°39' W 074°04'0 0.9
2017-Oct-07 19:30N 39°39' W 074°04'1 1.7
2017-Oct-07 19:00N 39°39' W 074°03'1 1.2
2017-Oct-07 18:30N 39°40' W 074°04'1 1.3
2017-Oct-07 18:00N 39°39' W 074°04'0 0.1
2017-Oct-07 17:30N 39°39' W 074°04'  

Dump ship's entire track history